Decoded Metar for KPDK (PEACHTREE/DEKALB in GA, USA) (IATA:PDK) | Meteo·Mobile Aviation Weather
aviador You're here:

KPDK Decoded Metar

PEACHTREE/DEKALB in GA, USA
Report Time2019-06-18 14:21:00
UTC Time2019-06-18 14:41:21
Flight Rules ifr IFR
Wind200° at 05 kt
W.Decomp.*RWY 21: 5.0 kt HW 0.4 kt LCW
RWY 16: 3.5 kt HW 3.5 kt RCW
RWY 27: 2.1 kt HW 4.5 kt LCW
Visibility9999 m
Phenomena:N/A
Clouds:Broken 009 Hf
Broken 022 Hf
Broken 065 Hf
Expected CloudBase > 800 ft AGL from Temp-Dew spread
Ceiling900 ft
Temp24°C (ISA +11)
Dew Point22°C (89% RH)
QNH1017 hPa
Density Alt2,480 ft
Elevation991 ft
Report Wrong Elevation
Raw Report
KPDK 181421Z 20005KT 10SM BKN009 BKN022 BKN065 24/22 A3004 RMK AO2
T02440222=

Extra information for KPDK:More info

Metar Taf Metar & Taf Last 4 Metars F.Rules Stats Wind Profile Meteogram Temp Stats Airport Information Weather charts Add Link Nearby VenuesMetar ALERT Operation Metar Decoded Social comments

AIRNAV info for KPDK